sensor_id;sensor_type;location;lat;lon;timestamp;pressure;altitude;pressure_sealevel;temperature;humidity
25722;BME280;13578;53.450;15.496;2023-06-14T00:01:41;100094.28;;;13.27;100.00
25722;BME280;13578;53.450;15.496;2023-06-14T00:04:41;100085.19;;;13.17;100.00
25722;BME280;13578;53.450;15.496;2023-06-14T00:07:43;100088.63;;;13.19;100.00
25722;BME280;13578;53.450;15.496;2023-06-14T00:10:44;100085.03;;;13.18;100.00
25722;BME280;13578;53.450;15.496;2023-06-14T00:13:45;100085.16;;;13.27;100.00
25722;BME280;13578;53.450;15.496;2023-06-14T00:16:46;100081.81;;;13.23;100.00
25722;BME280;13578;53.450;15.496;2023-06-14T00:19:46;100085.75;;;13.21;100.00
25722;BME280;13578;53.450;15.496;2023-06-14T00:22:47;100090.25;;;13.22;100.00
25722;BME280;13578;53.450;15.496;2023-06-14T00:25:48;100080.25;;;13.21;100.00
25722;BME280;13578;53.450;15.496;2023-06-14T00:28:49;100085.44;;;13.24;100.00
25722;BME280;13578;53.450;15.496;2023-06-14T00:31:49;100087.19;;;13.25;100.00
25722;BME280;13578;53.450;15.496;2023-06-14T00:34:50;100085.31;;;13.25;100.00
25722;BME280;13578;53.450;15.496;2023-06-14T00:37:51;100081.81;;;13.23;100.00
25722;BME280;13578;53.450;15.496;2023-06-14T00:40:52;100078.91;;;13.25;100.00
25722;BME280;13578;53.450;15.496;2023-06-14T00:43:53;100083.25;;;13.27;100.00
25722;BME280;13578;53.450;15.496;2023-06-14T00:46:55;100076.88;;;13.27;100.00
25722;BME280;13578;53.450;15.496;2023-06-14T00:49:56;100082.97;;;13.30;100.00
25722;BME280;13578;53.450;15.496;2023-06-14T00:52:57;100084.41;;;13.34;100.00
25722;BME280;13578;53.450;15.496;2023-06-14T00:55:58;100078.31;;;13.41;100.00
25722;BME280;13578;53.450;15.496;2023-06-14T00:59:00;100076.84;;;13.46;100.00
25722;BME280;13578;53.450;15.496;2023-06-14T01:02:00;100077.56;;;13.48;100.00
25722;BME280;13578;53.450;15.496;2023-06-14T01:05:01;100086.28;;;13.44;100.00
25722;BME280;13578;53.450;15.496;2023-06-14T01:08:40;100097.44;;;13.52;100.00
25722;BME280;13578;53.450;15.496;2023-06-14T01:12:00;100091.88;;;13.62;100.00
25722;BME280;13578;53.450;15.496;2023-06-14T01:15:05;100094.50;;;13.63;100.00
25722;BME280;13578;53.450;15.496;2023-06-14T01:18:08;100081.59;;;13.64;100.00
25722;BME280;13578;53.450;15.496;2023-06-14T01:21:24;100076.63;;;13.68;100.00
25722;BME280;13578;53.450;15.496;2023-06-14T01:24:24;100084.91;;;13.68;100.00
25722;BME280;13578;53.450;15.496;2023-06-14T01:27:26;100073.56;;;13.71;100.00
25722;BME280;13578;53.450;15.496;2023-06-14T01:30:30;100076.06;;;13.64;100.00
25722;BME280;13578;53.450;15.496;2023-06-14T01:33:35;100089.84;;;13.64;100.00
25722;BME280;13578;53.450;15.496;2023-06-14T01:36:37;100088.97;;;13.63;100.00
25722;BME280;13578;53.450;15.496;2023-06-14T01:39:43;100083.63;;;13.62;100.00
25722;BME280;13578;53.450;15.496;2023-06-14T01:42:46;100087.72;;;13.58;100.00
25722;BME280;13578;53.450;15.496;2023-06-14T01:45:49;100076.81;;;13.56;100.00
25722;BME280;13578;53.450;15.496;2023-06-14T01:48:51;100062.34;;;13.44;100.00
25722;BME280;13578;53.450;15.496;2023-06-14T01:51:52;100074.50;;;13.52;100.00
25722;BME280;13578;53.450;15.496;2023-06-14T01:54:52;100063.78;;;13.48;100.00
25722;BME280;13578;53.450;15.496;2023-06-14T01:57:53;100070.72;;;13.53;100.00
25722;BME280;13578;53.450;15.496;2023-06-14T02:00:54;100060.03;;;13.49;100.00
25722;BME280;13578;53.450;15.496;2023-06-14T02:03:58;100075.22;;;13.54;100.00
25722;BME280;13578;53.450;15.496;2023-06-14T02:06:59;100054.78;;;13.46;100.00
25722;BME280;13578;53.450;15.496;2023-06-14T02:09:59;100063.59;;;13.60;100.00
25722;BME280;13578;53.450;15.496;2023-06-14T02:13:00;100058.22;;;13.58;100.00
25722;BME280;13578;53.450;15.496;2023-06-14T02:16:01;100058.22;;;13.58;100.00
25722;BME280;13578;53.450;15.496;2023-06-14T02:19:02;100061.72;;;13.60;100.00
25722;BME280;13578;53.450;15.496;2023-06-14T02:22:02;100072.78;;;13.50;100.00
25722;BME280;13578;53.450;15.496;2023-06-14T02:25:03;100068.41;;;13.58;100.00
25722;BME280;13578;53.450;15.496;2023-06-14T02:28:04;100065.94;;;13.55;100.00
25722;BME280;13578;53.450;15.496;2023-06-14T02:31:05;100058.41;;;13.57;100.00
25722;BME280;13578;53.450;15.496;2023-06-14T02:34:06;100062.88;;;13.58;100.00
25722;BME280;13578;53.450;15.496;2023-06-14T02:37:09;100063.47;;;13.52;100.00
25722;BME280;13578;53.450;15.496;2023-06-14T02:40:10;100055.53;;;13.48;100.00
25722;BME280;13578;53.450;15.496;2023-06-14T02:43:11;100065.81;;;13.46;100.00
25722;BME280;13578;53.450;15.496;2023-06-14T02:46:12;100070.16;;;13.49;100.00
25722;BME280;13578;53.450;15.496;2023-06-14T02:49:12;100078.31;;;13.50;100.00
25722;BME280;13578;53.450;15.496;2023-06-14T02:52:13;100067.69;;;13.56;100.00
25722;BME280;13578;53.450;15.496;2023-06-14T02:55:17;100068.25;;;13.59;100.00
25722;BME280;13578;53.450;15.496;2023-06-14T02:58:17;100072.28;;;13.65;100.00
25722;BME280;13578;53.450;15.496;2023-06-14T03:01:19;100064.88;;;13.65;100.00
25722;BME280;13578;53.450;15.496;2023-06-14T03:04:21;100065.03;;;13.64;100.00
25722;BME280;13578;53.450;15.496;2023-06-14T03:07:21;100064.25;;;13.72;100.00
25722;BME280;13578;53.450;15.496;2023-06-14T03:10:23;100057.72;;;13.73;100.00
25722;BME280;13578;53.450;15.496;2023-06-14T03:13:24;100058.56;;;13.83;100.00
25722;BME280;13578;53.450;15.496;2023-06-14T03:16:24;100057.13;;;14.25;100.00
25722;BME280;13578;53.450;15.496;2023-06-14T03:19:25;100054.06;;;14.64;100.00
25722;BME280;13578;53.450;15.496;2023-06-14T03:22:26;100053.28;;;14.90;100.00
25722;BME280;13578;53.450;15.496;2023-06-14T03:25:27;100057.22;;;14.87;100.00
25722;BME280;13578;53.450;15.496;2023-06-14T03:28:29;100060.06;;;14.96;100.00
25722;BME280;13578;53.450;15.496;2023-06-14T03:31:30;100069.56;;;14.75;100.00
25722;BME280;13578;53.450;15.496;2023-06-14T03:34:33;100066.38;;;14.52;100.00
25722;BME280;13578;53.450;15.496;2023-06-14T03:37:35;100068.72;;;14.46;100.00
25722;BME280;13578;53.450;15.496;2023-06-14T03:40:35;100061.38;;;15.09;100.00
25722;BME280;13578;53.450;15.496;2023-06-14T03:43:36;100055.56;;;15.82;100.00
25722;BME280;13578;53.450;15.496;2023-06-14T03:46:37;100058.19;;;16.26;100.00
25722;BME280;13578;53.450;15.496;2023-06-14T03:49:37;100070.03;;;16.02;100.00
25722;BME280;13578;53.450;15.496;2023-06-14T03:52:38;100061.72;;;15.94;100.00
25722;BME280;13578;53.450;15.496;2023-06-14T03:55:39;100070.69;;;15.87;100.00
25722;BME280;13578;53.450;15.496;2023-06-14T03:58:41;100067.31;;;16.10;100.00
25722;BME280;13578;53.450;15.496;2023-06-14T04:01:42;100077.38;;;16.28;100.00
25722;BME280;13578;53.450;15.496;2023-06-14T04:04:45;100081.06;;;16.45;100.00
25722;BME280;13578;53.450;15.496;2023-06-14T04:07:46;100083.69;;;16.46;100.00
25722;BME280;13578;53.450;15.496;2023-06-14T04:10:48;100077.78;;;16.58;100.00
25722;BME280;13578;53.450;15.496;2023-06-14T04:13:49;100083.19;;;16.84;100.00
25722;BME280;13578;53.450;15.496;2023-06-14T04:16:50;100078.69;;;16.66;100.00
25722;BME280;13578;53.450;15.496;2023-06-14T04:19:50;100075.75;;;16.85;100.00
25722;BME280;13578;53.450;15.496;2023-06-14T04:22:52;100084.59;;;17.13;100.00
25722;BME280;13578;53.450;15.496;2023-06-14T04:25:57;100082.13;;;17.59;100.00
25722;BME280;13578;53.450;15.496;2023-06-14T04:29:02;100080.41;;;17.42;100.00
25722;BME280;13578;53.450;15.496;2023-06-14T04:32:03;100074.50;;;17.53;100.00
25722;BME280;13578;53.450;15.496;2023-06-14T04:35:08;100078.72;;;17.16;100.00
25722;BME280;13578;53.450;15.496;2023-06-14T04:38:08;100097.53;;;16.71;100.00
25722;BME280;13578;53.450;15.496;2023-06-14T04:41:09;100107.00;;;16.27;100.00
25722;BME280;13578;53.450;15.496;2023-06-14T04:44:11;100118.97;;;16.01;100.00
25722;BME280;13578;53.450;15.496;2023-06-14T04:47:13;100108.25;;;15.98;100.00
25722;BME280;13578;53.450;15.496;2023-06-14T04:50:14;100116.06;;;16.03;100.00
25722;BME280;13578;53.450;15.496;2023-06-14T04:53:17;100109.59;;;16.29;100.00
25722;BME280;13578;53.450;15.496;2023-06-14T04:56:21;100106.59;;;16.14;100.00
25722;BME280;13578;53.450;15.496;2023-06-14T04:59:21;100109.06;;;16.33;100.00
25722;BME280;13578;53.450;15.496;2023-06-14T05:02:25;100105.13;;;16.44;100.00
25722;BME280;13578;53.450;15.496;2023-06-14T05:05:26;100096.72;;;16.87;100.00
25722;BME280;13578;53.450;15.496;2023-06-14T05:08:26;100087.88;;;17.41;100.00
25722;BME280;13578;53.450;15.496;2023-06-14T05:11:27;100099.91;;;17.73;100.00
25722;BME280;13578;53.450;15.496;2023-06-14T05:14:27;100098.59;;;17.44;100.00
25722;BME280;13578;53.450;15.496;2023-06-14T05:17:28;100100.53;;;17.36;100.00
25722;BME280;13578;53.450;15.496;2023-06-14T05:20:29;100111.81;;;17.09;100.00
25722;BME280;13578;53.450;15.496;2023-06-14T05:23:29;100111.25;;;16.89;100.00
25722;BME280;13578;53.450;15.496;2023-06-14T05:26:30;100116.50;;;17.09;100.00
25722;BME280;13578;53.450;15.496;2023-06-14T05:29:31;100113.72;;;17.09;100.00
25722;BME280;13578;53.450;15.496;2023-06-14T05:32:32;100110.19;;;16.57;100.00
25722;BME280;13578;53.450;15.496;2023-06-14T05:35:33;100105.47;;;16.33;100.00
25722;BME280;13578;53.450;15.496;2023-06-14T05:38:33;100105.84;;;16.55;100.00
25722;BME280;13578;53.450;15.496;2023-06-14T05:41:34;100101.38;;;16.70;100.00
25722;BME280;13578;53.450;15.496;2023-06-14T05:44:34;100094.97;;;16.78;100.00
25722;BME280;13578;53.450;15.496;2023-06-14T05:47:35;100107.09;;;16.85;100.00
25722;BME280;13578;53.450;15.496;2023-06-14T05:50:36;100108.81;;;16.70;100.00
25722;BME280;13578;53.450;15.496;2023-06-14T05:53:36;100099.81;;;16.59;100.00
25722;BME280;13578;53.450;15.496;2023-06-14T05:56:37;100117.75;;;16.47;100.00
25722;BME280;13578;53.450;15.496;2023-06-14T05:59:38;100116.38;;;16.43;100.00
25722;BME280;13578;53.450;15.496;2023-06-14T06:02:38;100117.59;;;16.57;100.00
25722;BME280;13578;53.450;15.496;2023-06-14T06:05:39;100111.41;;;16.63;100.00
25722;BME280;13578;53.450;15.496;2023-06-14T06:08:40;100111.75;;;16.60;100.00
25722;BME280;13578;53.450;15.496;2023-06-14T06:11:41;100122.69;;;16.78;100.00
25722;BME280;13578;53.450;15.496;2023-06-14T06:14:41;100119.06;;;16.77;100.00
25722;BME280;13578;53.450;15.496;2023-06-14T06:17:45;100127.53;;;16.76;100.00
25722;BME280;13578;53.450;15.496;2023-06-14T06:20:45;100112.59;;;16.60;100.00
25722;BME280;13578;53.450;15.496;2023-06-14T06:23:47;100118.84;;;16.71;100.00
25722;BME280;13578;53.450;15.496;2023-06-14T06:26:47;100129.97;;;16.79;100.00
25722;BME280;13578;53.450;15.496;2023-06-14T06:29:48;100110.00;;;16.59;100.00
25722;BME280;13578;53.450;15.496;2023-06-14T06:32:49;100126.31;;;16.62;100.00
25722;BME280;13578;53.450;15.496;2023-06-14T06:35:50;100118.28;;;16.50;100.00
25722;BME280;13578;53.450;15.496;2023-06-14T06:38:51;100119.19;;;16.51;100.00
25722;BME280;13578;53.450;15.496;2023-06-14T06:41:52;100127.50;;;16.59;100.00
25722;BME280;13578;53.450;15.496;2023-06-14T06:44:52;100131.66;;;16.63;100.00
25722;BME280;13578;53.450;15.496;2023-06-14T06:47:53;100120.06;;;16.68;100.00
25722;BME280;13578;53.450;15.496;2023-06-14T06:50:54;100116.44;;;16.76;100.00
25722;BME280;13578;53.450;15.496;2023-06-14T06:53:55;100116.28;;;16.86;100.00
25722;BME280;13578;53.450;15.496;2023-06-14T06:56:56;100124.06;;;16.90;100.00
25722;BME280;13578;53.450;15.496;2023-06-14T06:59:57;100121.84;;;16.94;100.00
25722;BME280;13578;53.450;15.496;2023-06-14T07:02:57;100139.03;;;17.06;100.00
25722;BME280;13578;53.450;15.496;2023-06-14T07:05:58;100138.50;;;17.10;100.00
25722;BME280;13578;53.450;15.496;2023-06-14T07:08:59;100124.97;;;17.15;100.00
25722;BME280;13578;53.450;15.496;2023-06-14T07:12:01;100131.03;;;17.11;100.00
25722;BME280;13578;53.450;15.496;2023-06-14T07:15:02;100127.06;;;16.97;100.00
25722;BME280;13578;53.450;15.496;2023-06-14T07:18:03;100134.88;;;17.02;100.00
25722;BME280;13578;53.450;15.496;2023-06-14T07:21:04;100140.44;;;17.18;100.00
25722;BME280;13578;53.450;15.496;2023-06-14T07:24:07;100128.28;;;17.36;100.00
25722;BME280;13578;53.450;15.496;2023-06-14T07:27:08;100137.28;;;17.46;100.00
25722;BME280;13578;53.450;15.496;2023-06-14T07:30:09;100145.22;;;17.66;100.00
25722;BME280;13578;53.450;15.496;2023-06-14T07:33:10;100129.06;;;17.86;100.00
25722;BME280;13578;53.450;15.496;2023-06-14T07:36:12;100125.84;;;18.14;100.00
25722;BME280;13578;53.450;15.496;2023-06-14T07:39:13;100130.38;;;18.46;100.00
25722;BME280;13578;53.450;15.496;2023-06-14T07:42:13;100123.66;;;18.72;100.00
25722;BME280;13578;53.450;15.496;2023-06-14T07:45:14;100123.91;;;18.85;100.00
25722;BME280;13578;53.450;15.496;2023-06-14T07:48:15;100128.78;;;19.07;100.00
25722;BME280;13578;53.450;15.496;2023-06-14T07:51:15;100136.16;;;19.23;100.00
25722;BME280;13578;53.450;15.496;2023-06-14T07:54:16;100120.47;;;19.45;95.39
25722;BME280;13578;53.450;15.496;2023-06-14T07:57:16;100134.22;;;19.61;97.34
25722;BME280;13578;53.450;15.496;2023-06-14T08:00:17;100132.13;;;19.78;95.64
25722;BME280;13578;53.450;15.496;2023-06-14T08:03:19;100119.69;;;20.04;91.77
25722;BME280;13578;53.450;15.496;2023-06-14T08:06:20;100124.19;;;19.90;92.76
25722;BME280;13578;53.450;15.496;2023-06-14T08:09:20;100128.84;;;19.60;94.25
25722;BME280;13578;53.450;15.496;2023-06-14T08:12:21;100124.63;;;19.64;95.19
25722;BME280;13578;53.450;15.496;2023-06-14T08:15:22;100140.56;;;19.70;95.92
25722;BME280;13578;53.450;15.496;2023-06-14T08:18:23;100126.78;;;19.92;93.18
25722;BME280;13578;53.450;15.496;2023-06-14T08:21:23;100126.41;;;20.25;92.20
25722;BME280;13578;53.450;15.496;2023-06-14T08:24:26;100119.72;;;20.56;88.45
25722;BME280;13578;53.450;15.496;2023-06-14T08:27:27;100116.94;;;20.56;88.82
25722;BME280;13578;53.450;15.496;2023-06-14T08:30:28;100117.84;;;20.78;86.48
25722;BME280;13578;53.450;15.496;2023-06-14T08:33:28;100112.78;;;20.52;86.93
25722;BME280;13578;53.450;15.496;2023-06-14T08:36:29;100110.22;;;20.87;86.55
25722;BME280;13578;53.450;15.496;2023-06-14T08:39:29;100105.44;;;20.81;86.60
25722;BME280;13578;53.450;15.496;2023-06-14T08:42:32;100123.34;;;21.36;87.33
25722;BME280;13578;53.450;15.496;2023-06-14T08:45:33;100116.16;;;21.77;82.38
25722;BME280;13578;53.450;15.496;2023-06-14T08:48:34;100103.28;;;21.76;79.70
25722;BME280;13578;53.450;15.496;2023-06-14T08:51:35;100104.22;;;21.90;80.03
25722;BME280;13578;53.450;15.496;2023-06-14T08:54:37;100106.41;;;21.95;78.14
25722;BME280;13578;53.450;15.496;2023-06-14T08:57:44;100118.94;;;22.05;79.38
25722;BME280;13578;53.450;15.496;2023-06-14T09:00:46;100105.72;;;22.28;77.05
25722;BME280;13578;53.450;15.496;2023-06-14T09:03:47;100100.22;;;22.48;76.48
25722;BME280;13578;53.450;15.496;2023-06-14T09:06:48;100107.03;;;22.32;77.13
25722;BME280;13578;53.450;15.496;2023-06-14T09:10:14;100106.03;;;22.46;76.24
25722;BME280;13578;53.450;15.496;2023-06-14T09:13:15;100108.00;;;22.52;73.39
25722;BME280;13578;53.450;15.496;2023-06-14T09:16:16;100117.28;;;22.66;72.44
25722;BME280;13578;53.450;15.496;2023-06-14T09:19:23;100103.72;;;22.57;70.44
25722;BME280;13578;53.450;15.496;2023-06-14T09:22:25;100104.53;;;22.44;72.26
25722;BME280;13578;53.450;15.496;2023-06-14T09:25:25;100105.72;;;22.34;71.38
25722;BME280;13578;53.450;15.496;2023-06-14T09:28:27;100118.16;;;22.25;71.55
25722;BME280;13578;53.450;15.496;2023-06-14T09:31:28;100113.19;;;22.56;74.81
25722;BME280;13578;53.450;15.496;2023-06-14T09:34:33;100094.25;;;22.64;67.91
25722;BME280;13578;53.450;15.496;2023-06-14T09:37:36;100100.06;;;22.69;68.32
25722;BME280;13578;53.450;15.496;2023-06-14T09:40:38;100104.59;;;22.71;70.19
25722;BME280;13578;53.450;15.496;2023-06-14T09:43:39;100102.03;;;22.69;66.21
25722;BME280;13578;53.450;15.496;2023-06-14T09:46:40;100089.56;;;22.78;65.15
25722;BME280;13578;53.450;15.496;2023-06-14T09:49:40;100092.97;;;22.67;66.14
25722;BME280;13578;53.450;15.496;2023-06-14T09:52:43;100081.38;;;22.77;65.48
25722;BME280;13578;53.450;15.496;2023-06-14T09:55:44;100083.59;;;23.15;64.45
25722;BME280;13578;53.450;15.496;2023-06-14T09:58:46;100067.69;;;23.22;62.67
25722;BME280;13578;53.450;15.496;2023-06-14T10:01:48;100068.75;;;23.41;63.56
25722;BME280;13578;53.450;15.496;2023-06-14T10:08:08;100060.53;;;23.93;60.42
25722;BME280;13578;53.450;15.496;2023-06-14T10:11:09;100046.75;;;24.37;57.65
25722;BME280;13578;53.450;15.496;2023-06-14T10:14:12;100044.19;;;24.29;56.25
25722;BME280;13578;53.450;15.496;2023-06-14T10:17:22;100060.72;;;23.99;54.42
25722;BME280;13578;53.450;15.496;2023-06-14T10:23:27;100060.38;;;23.48;54.61
25722;BME280;13578;53.450;15.496;2023-06-14T10:26:29;100065.28;;;23.12;57.85
25722;BME280;13578;53.450;15.496;2023-06-14T10:29:29;100071.06;;;22.84;59.27
25722;BME280;13578;53.450;15.496;2023-06-14T10:32:32;100076.81;;;22.62;63.65
25722;BME280;13578;53.450;15.496;2023-06-14T10:35:33;100075.41;;;22.31;65.66
25722;BME280;13578;53.450;15.496;2023-06-14T10:38:36;100066.38;;;22.36;68.09
25722;BME280;13578;53.450;15.496;2023-06-14T10:41:38;100074.41;;;22.39;69.91
25722;BME280;13578;53.450;15.496;2023-06-14T10:44:42;100067.09;;;22.45;68.77
25722;BME280;13578;53.450;15.496;2023-06-14T10:47:43;100063.06;;;22.54;67.10
25722;BME280;13578;53.450;15.496;2023-06-14T10:50:43;100049.53;;;22.78;67.19
25722;BME280;13578;53.450;15.496;2023-06-14T10:53:45;100061.22;;;23.08;67.25
25722;BME280;13578;53.450;15.496;2023-06-14T10:56:50;100048.47;;;23.06;62.40
25722;BME280;13578;53.450;15.496;2023-06-14T10:59:51;100057.28;;;22.82;64.65
25722;BME280;13578;53.450;15.496;2023-06-14T11:06:21;100054.69;;;22.12;67.88
25722;BME280;13578;53.450;15.496;2023-06-14T11:12:39;100052.72;;;21.64;68.52
25722;BME280;13578;53.450;15.496;2023-06-14T11:15:44;100062.50;;;21.53;69.61
25722;BME280;13578;53.450;15.496;2023-06-14T11:18:46;100053.44;;;21.23;68.84
25722;BME280;13578;53.450;15.496;2023-06-14T11:21:47;100059.22;;;21.15;70.95
25722;BME280;13578;53.450;15.496;2023-06-14T11:24:48;100058.81;;;20.96;71.59
25722;BME280;13578;53.450;15.496;2023-06-14T11:27:49;100055.47;;;20.86;72.45
25722;BME280;13578;53.450;15.496;2023-06-14T11:31:01;100058.22;;;20.79;73.96
25722;BME280;13578;53.450;15.496;2023-06-14T11:34:02;100062.06;;;20.78;75.09
25722;BME280;13578;53.450;15.496;2023-06-14T11:37:04;100057.38;;;20.63;74.32
25722;BME280;13578;53.450;15.496;2023-06-14T11:40:08;100057.25;;;20.72;74.42
25722;BME280;13578;53.450;15.496;2023-06-14T11:43:10;100065.63;;;20.72;75.71
25722;BME280;13578;53.450;15.496;2023-06-14T11:46:13;100057.25;;;20.72;77.09
25722;BME280;13578;53.450;15.496;2023-06-14T11:49:15;100057.03;;;20.52;78.35
25722;BME280;13578;53.450;15.496;2023-06-14T11:52:16;100054.72;;;20.55;79.69
25722;BME280;13578;53.450;15.496;2023-06-14T11:55:17;100054.66;;;20.49;80.31
25722;BME280;13578;53.450;15.496;2023-06-14T11:58:18;100056.56;;;20.48;81.77
25722;BME280;13578;53.450;15.496;2023-06-14T12:01:19;100049.28;;;20.47;88.59
25722;BME280;13578;53.450;15.496;2023-06-14T12:04:29;100052.00;;;20.40;91.57
25722;BME280;13578;53.450;15.496;2023-06-14T12:07:30;100045.06;;;20.36;92.03
25722;BME280;13578;53.450;15.496;2023-06-14T12:10:39;100047.47;;;20.39;94.17
25722;BME280;13578;53.450;15.496;2023-06-14T12:13:41;100057.84;;;20.45;96.44
25722;BME280;13578;53.450;15.496;2023-06-14T12:16:42;100047.38;;;20.47;99.14
25722;BME280;13578;53.450;15.496;2023-06-14T12:19:44;100043.78;;;20.54;99.90
25722;BME280;13578;53.450;15.496;2023-06-14T12:22:56;100046.03;;;20.65;100.00
25722;BME280;13578;53.450;15.496;2023-06-14T12:25:59;100049.97;;;20.71;100.00
25722;BME280;13578;53.450;15.496;2023-06-14T12:29:00;100044.97;;;20.81;100.00
25722;BME280;13578;53.450;15.496;2023-06-14T12:32:01;100040.75;;;20.92;97.06
25722;BME280;13578;53.450;15.496;2023-06-14T12:35:01;100045.66;;;21.12;98.20
25722;BME280;13578;53.450;15.496;2023-06-14T12:38:03;100038.03;;;21.27;98.11
25722;BME280;13578;53.450;15.496;2023-06-14T12:41:04;100041.91;;;21.54;92.93
25722;BME280;13578;53.450;15.496;2023-06-14T12:44:04;100044.13;;;21.66;91.32
25722;BME280;13578;53.450;15.496;2023-06-14T12:47:05;100047.88;;;21.80;86.07
25722;BME280;13578;53.450;15.496;2023-06-14T12:50:07;100034.16;;;21.85;86.73
25722;BME280;13578;53.450;15.496;2023-06-14T12:53:08;100043.88;;;21.96;86.22
25722;BME280;13578;53.450;15.496;2023-06-14T12:56:08;100036.34;;;21.96;79.91
25722;BME280;13578;53.450;15.496;2023-06-14T12:59:09;100049.34;;;22.17;80.47
25722;BME280;13578;53.450;15.496;2023-06-14T13:02:13;100044.84;;;22.30;74.70
25722;BME280;13578;53.450;15.496;2023-06-14T13:05:14;100044.69;;;22.31;76.79
25722;BME280;13578;53.450;15.496;2023-06-14T13:08:14;100043.47;;;22.05;74.70
25722;BME280;13578;53.450;15.496;2023-06-14T13:11:15;100039.13;;;21.89;75.30
25722;BME280;13578;53.450;15.496;2023-06-14T13:14:16;100044.50;;;21.91;79.35
25722;BME280;13578;53.450;15.496;2023-06-14T13:17:16;100059.97;;;21.94;81.09
25722;BME280;13578;53.450;15.496;2023-06-14T13:20:17;100066.00;;;21.34;85.72
25722;BME280;13578;53.450;15.496;2023-06-14T13:23:17;100049.03;;;20.63;89.34
25722;BME280;13578;53.450;15.496;2023-06-14T13:26:18;100055.31;;;20.51;92.14
25722;BME280;13578;53.450;15.496;2023-06-14T13:29:19;100049.13;;;19.97;93.92
25722;BME280;13578;53.450;15.496;2023-06-14T13:32:21;100045.06;;;19.84;92.75
25722;BME280;13578;53.450;15.496;2023-06-14T13:35:22;100041.09;;;19.79;91.29
25722;BME280;13578;53.450;15.496;2023-06-14T13:38:23;100053.41;;;19.70;90.88
25722;BME280;13578;53.450;15.496;2023-06-14T13:41:25;100045.34;;;19.60;92.95
25722;BME280;13578;53.450;15.496;2023-06-14T13:44:31;100039.47;;;19.55;91.75
25722;BME280;13578;53.450;15.496;2023-06-14T13:47:32;100038.81;;;19.52;91.21
25722;BME280;13578;53.450;15.496;2023-06-14T13:50:33;100033.81;;;19.63;91.17
25722;BME280;13578;53.450;15.496;2023-06-14T13:53:33;100032.41;;;19.67;92.27
25722;BME280;13578;53.450;15.496;2023-06-14T13:56:34;100039.88;;;19.66;93.69
25722;BME280;13578;53.450;15.496;2023-06-14T13:59:35;100039.00;;;19.66;93.69
25722;BME280;13578;53.450;15.496;2023-06-14T14:02:35;100052.63;;;19.61;94.70
25722;BME280;13578;53.450;15.496;2023-06-14T14:05:36;100041.19;;;19.26;95.33
25722;BME280;13578;53.450;15.496;2023-06-14T14:08:37;100042.06;;;19.26;95.03
25722;BME280;13578;53.450;15.496;2023-06-14T14:11:37;100031.28;;;19.08;95.09
25722;BME280;13578;53.450;15.496;2023-06-14T14:14:40;100031.22;;;19.16;94.29
25722;BME280;13578;53.450;15.496;2023-06-14T14:17:41;100023.34;;;19.35;90.82
25722;BME280;13578;53.450;15.496;2023-06-14T14:20:41;100027.88;;;19.51;89.00
25722;BME280;13578;53.450;15.496;2023-06-14T14:23:42;100017.31;;;19.61;87.21
25722;BME280;13578;53.450;15.496;2023-06-14T14:26:42;100019.59;;;19.73;85.74
25722;BME280;13578;53.450;15.496;2023-06-14T14:29:43;100013.88;;;19.89;86.30
25722;BME280;13578;53.450;15.496;2023-06-14T14:32:44;100012.03;;;19.81;85.13
25722;BME280;13578;53.450;15.496;2023-06-14T14:35:45;100020.31;;;19.90;87.02
25722;BME280;13578;53.450;15.496;2023-06-14T14:38:48;100018.00;;;19.93;85.18
25722;BME280;13578;53.450;15.496;2023-06-14T14:41:52;100016.66;;;19.74;86.49
25722;BME280;13578;53.450;15.496;2023-06-14T14:44:52;100023.91;;;19.75;88.19
25722;BME280;13578;53.450;15.496;2023-06-14T14:47:53;100016.16;;;19.71;86.91
25722;BME280;13578;53.450;15.496;2023-06-14T14:50:53;100024.41;;;19.64;86.92
25722;BME280;13578;53.450;15.496;2023-06-14T14:53:54;100031.31;;;19.53;87.17
25722;BME280;13578;53.450;15.496;2023-06-14T14:56:54;100024.91;;;19.52;87.02
25722;BME280;13578;53.450;15.496;2023-06-14T14:59:55;100024.41;;;19.64;88.27
25722;BME280;13578;53.450;15.496;2023-06-14T15:02:56;100017.78;;;19.65;85.72
25722;BME280;13578;53.450;15.496;2023-06-14T15:05:56;100012.91;;;19.67;87.11
25722;BME280;13578;53.450;15.496;2023-06-14T15:08:57;100015.75;;;19.74;86.39
25722;BME280;13578;53.450;15.496;2023-06-14T15:11:57;100017.13;;;19.78;88.29
25722;BME280;13578;53.450;15.496;2023-06-14T15:14:58;100019.72;;;19.79;88.08
25722;BME280;13578;53.450;15.496;2023-06-14T15:17:59;100017.59;;;19.81;89.45
25722;BME280;13578;53.450;15.496;2023-06-14T15:21:00;100012.69;;;19.83;89.94
25722;BME280;13578;53.450;15.496;2023-06-14T15:24:02;100016.38;;;19.84;90.84
25722;BME280;13578;53.450;15.496;2023-06-14T15:27:03;100010.22;;;19.89;91.20
25722;BME280;13578;53.450;15.496;2023-06-14T15:30:04;100017.22;;;19.99;90.62
25722;BME280;13578;53.450;15.496;2023-06-14T15:33:05;100005.88;;;20.01;89.65
25722;BME280;13578;53.450;15.496;2023-06-14T15:36:06;100014.50;;;20.06;88.80
25722;BME280;13578;53.450;15.496;2023-06-14T15:39:09;100011.66;;;19.99;90.26
25722;BME280;13578;53.450;15.496;2023-06-14T15:42:10;100018.22;;;20.13;89.18
25722;BME280;13578;53.450;15.496;2023-06-14T15:45:11;100011.59;;;20.14;87.50